Time;durP1;ratioP1;P1;durP2;ratioP2;P2;SDS_P1;SDS_P2;PMS_P1;PMS_P2;Temp;Humidity;BMP_temperature;BMP_pressure;BME280_temperature;BME280_humidity;BME280_pressure;Samples;Min_cycle;Max_cycle;Signal;HPM_P1;HPM_P2
2022/09/18 00:00:02;;;;;;;5.25;2.60;;;;;;;;;;5070648;28;20581;-70
2022/09/18 00:02:29;;;;;;;4.20;2.05;;;;;;;;;;5070904;28;20029;-70
2022/09/18 00:08:02;;;;;;;5.97;3.40;;;;;;;;;;5070375;28;20556;-70
2022/09/18 00:10:28;;;;;;;4.60;2.70;;;;;;;;;;5070892;28;20049;-70
2022/09/18 00:12:54;;;;;;;5.90;2.53;;;;;;;;;;5070652;28;20031;-70
2022/09/18 00:16:21;;;;;;;8.85;2.45;;;;;;;;;;5111956;27;20581;-70
2022/09/18 00:18:48;;;;;;;5.20;2.60;;;;;;;;;;5111198;28;20020;-69
2022/09/18 00:21:23;;;;;;;8.23;2.20;;;;;;;;;;5110698;28;20095;-70
2022/09/18 00:23:49;;;;;;;5.03;2.22;;;;;;;;;;5111088;28;20046;-70
2022/09/18 00:26:17;;;;;;;5.30;2.15;;;;;;;;;;5111009;28;20465;-72
2022/09/18 00:30:28;;;;;;;3.75;1.85;;;;;;;;;;5111605;27;20556;-73
2022/09/18 00:32:54;;;;;;;4.07;2.05;;;;;;;;;;5111217;28;20016;-72
2022/09/18 00:35:48;;;;;;;10.65;2.35;;;;;;;;;;5111157;27;20555;-70
2022/09/18 00:38:14;;;;;;;6.78;2.50;;;;;;;;;;5111201;28;20028;-70
2022/09/18 00:42:47;;;;;;;5.50;2.80;;;;;;;;;;5070566;28;20739;-70
2022/09/18 00:46:02;;;;;;;6.45;2.63;;;;;;;;;;5070808;28;20543;-70
2022/09/18 00:48:33;;;;;;;5.00;2.25;;;;;;;;;;5070226;28;20100;-69
2022/09/18 00:50:59;;;;;;;5.28;2.33;;;;;;;;;;5070600;28;20449;-70
2022/09/18 00:53:26;;;;;;;7.25;2.22;;;;;;;;;;5070509;28;20025;-70
2022/09/18 00:55:52;;;;;;;3.55;1.83;;;;;;;;;;5070078;28;20052;-70
2022/09/18 00:58:18;;;;;;;5.53;2.20;;;;;;;;;;5069060;28;20029;-70
2022/09/18 01:02:04;;;;;;;5.13;2.08;;;;;;;;;;5111898;27;20868;-70
2022/09/18 01:04:30;;;;;;;5.13;2.28;;;;;;;;;;5110712;28;20028;-70
2022/09/18 01:07:08;;;;;;;6.25;2.35;;;;;;;;;;5111111;28;20027;-70
2022/09/18 01:09:53;;;;;;;5.47;2.03;;;;;;;;;;5110809;28;20046;-70
2022/09/18 01:12:19;;;;;;;5.53;2.50;;;;;;;;;;5111001;28;20108;-70
2022/09/18 01:14:54;;;;;;;4.53;2.08;;;;;;;;;;5111448;28;20116;-70
2022/09/18 01:17:44;;;;;;;2.78;1.70;;;;;;;;;;5110512;28;20056;-70
2022/09/18 01:22:20;;;;;;;5.10;2.20;;;;;;;;;;5091040;27;20881;-70
2022/09/18 01:24:58;;;;;;;7.63;3.03;;;;;;;;;;5090460;28;20380;-70
2022/09/18 01:27:24;;;;;;;11.68;3.17;;;;;;;;;;5090724;28;20491;-70
2022/09/18 01:30:02;;;;;;;4.00;2.33;;;;;;;;;;5090938;28;20024;-70
2022/09/18 01:32:37;;;;;;;4.88;2.60;;;;;;;;;;5090427;28;20419;-70
2022/09/18 01:35:23;;;;;;;4.10;2.20;;;;;;;;;;5091142;28;20368;-70
2022/09/18 01:41:05;;;;;;;8.20;2.35;;;;;;;;;;5111351;27;20570;-70
2022/09/18 01:46:25;;;;;;;4.30;1.73;;;;;;;;;;5110956;27;20629;-72
2022/09/18 01:49:29;;;;;;;5.60;1.92;;;;;;;;;;5111605;27;20377;-70
2022/09/18 01:53:37;;;;;;;5.97;2.42;;;;;;;;;;5110875;27;20446;-70
2022/09/18 01:56:07;;;;;;;5.32;2.22;;;;;;;;;;5111541;28;20031;-72
2022/09/18 01:59:29;;;;;;;3.05;1.80;;;;;;;;;;5111341;27;20389;-70
2022/09/18 02:03:31;;;;;;;4.30;2.28;;;;;;;;;;5111614;27;20884;-72
2022/09/18 02:05:59;;;;;;;4.77;2.90;;;;;;;;;;5110978;28;20171;-70
2022/09/18 02:08:36;;;;;;;6.80;2.70;;;;;;;;;;5111163;28;20259;-70
2022/09/18 02:15:25;;;;;;;4.70;2.22;;;;;;;;;;5111669;27;20971;-70
2022/09/18 02:18:03;;;;;;;4.18;1.55;;;;;;;;;;5111430;28;20476;-70
2022/09/18 02:20:30;;;;;;;4.75;1.38;;;;;;;;;;5111027;28;20447;-72
2022/09/18 02:23:00;;;;;;;4.00;1.00;;;;;;;;;;5111226;28;20024;-70
2022/09/18 02:25:31;;;;;;;5.10;1.23;;;;;;;;;;5111096;28;20028;-70
2022/09/18 02:27:57;;;;;;;1.17;0.80;;;;;;;;;;5110704;28;20140;-70
2022/09/18 02:30:23;;;;;;;7.10;2.00;;;;;;;;;;5111533;28;20051;-71
2022/09/18 02:32:54;;;;;;;3.70;1.35;;;;;;;;;;5110962;28;20073;-71
2022/09/18 02:36:54;;;;;;;2.50;1.15;;;;;;;;;;5111503;27;20833;-72
2022/09/18 02:39:49;;;;;;;7.53;1.10;;;;;;;;;;5111329;28;20027;-71
2022/09/18 02:42:18;;;;;;;2.35;0.77;;;;;;;;;;5073364;28;20043;-71
2022/09/18 02:44:57;;;;;;;2.38;0.70;;;;;;;;;;5111162;28;20038;-71
2022/09/18 02:48:42;;;;;;;2.30;0.82;;;;;;;;;;5111285;27;20625;-72
2022/09/18 02:52:02;;;;;;;1.77;0.85;;;;;;;;;;5173529;27;20109;-71
2022/09/18 02:57:15;;;;;;;1.65;0.63;;;;;;;;;;5110857;27;20404;-71
2022/09/18 02:59:50;;;;;;;3.60;0.73;;;;;;;;;;5111711;28;20103;-72
2022/09/18 03:02:16;;;;;;;1.25;0.68;;;;;;;;;;5111008;28;20042;-71
2022/09/18 03:06:55;;;;;;;4.57;1.00;;;;;;;;;;5070943;28;20395;-71
2022/09/18 03:09:21;;;;;;;0.88;0.68;;;;;;;;;;5070521;28;20029;-71
2022/09/18 03:11:48;;;;;;;4.90;0.77;;;;;;;;;;5070881;28;20392;-71
2022/09/18 03:14:14;;;;;;;0.98;0.47;;;;;;;;;;5070574;28;20028;-70
2022/09/18 03:16:41;;;;;;;0.57;0.40;;;;;;;;;;5070104;28;20031;-70
2022/09/18 03:19:07;;;;;;;1.98;0.93;;;;;;;;;;5070597;28;20028;-71
2022/09/18 03:25:51;;;;;;;0.73;0.40;;;;;;;;;;5071480;28;20383;-72
2022/09/18 03:28:18;;;;;;;1.42;0.55;;;;;;;;;;5070769;28;20440;-71
2022/09/18 03:31:38;;;;;;;1.73;0.40;;;;;;;;;;5070397;28;20561;-70
2022/09/18 03:34:18;;;;;;;2.13;0.40;;;;;;;;;;5111519;27;20377;-73
2022/09/18 03:36:45;;;;;;;0.40;0.32;;;;;;;;;;5111590;28;20032;-73
2022/09/18 03:40:04;;;;;;;0.17;0.17;;;;;;;;;;5091255;28;20830;-71
2022/09/18 03:42:30;;;;;;;2.92;1.20;;;;;;;;;;5090898;28;20025;-71
2022/09/18 03:45:36;;;;;;;0.70;0.38;;;;;;;;;;5070625;28;20744;-71
2022/09/18 03:50:43;;;;;;;1.45;0.20;;;;;;;;;;5112071;27;21018;-71
2022/09/18 03:53:09;;;;;;;0.65;0.30;;;;;;;;;;5110946;28;20024;-71
2022/09/18 03:57:28;;;;;;;7.03;1.00;;;;;;;;;;5111783;27;20993;-73
2022/09/18 03:59:54;;;;;;;0.57;0.20;;;;;;;;;;5110932;28;20024;-72
2022/09/18 04:03:05;;;;;;;1.83;0.40;;;;;;;;;;5091633;27;20390;-73
2022/09/18 04:05:31;;;;;;;2.47;0.40;;;;;;;;;;5072445;28;20032;-71
2022/09/18 04:07:58;;;;;;;1.80;0.80;;;;;;;;;;5090832;28;20013;-71
2022/09/18 04:10:25;;;;;;;1.05;0.40;;;;;;;;;;5090820;28;20017;-72
2022/09/18 04:12:51;;;;;;;2.03;0.77;;;;;;;;;;5090387;28;20078;-71
2022/09/18 04:15:18;;;;;;;0.70;0.40;;;;;;;;;;5090757;28;20043;-72
2022/09/18 04:17:44;;;;;;;0.43;0.38;;;;;;;;;;5090727;28;20031;-71
2022/09/18 04:20:10;;;;;;;0.28;0.20;;;;;;;;;;5090450;28;20361;-71
2022/09/18 04:24:18;;;;;;;0.52;0.50;;;;;;;;;;5111932;27;20919;-72
2022/09/18 04:26:44;;;;;;;0.50;0.47;;;;;;;;;;5111380;28;20460;-73
2022/09/18 04:29:10;;;;;;;1.40;0.20;;;;;;;;;;5111279;28;20034;-73
2022/09/18 04:31:36;;;;;;;1.00;0.30;;;;;;;;;;5111234;28;20357;-71
2022/09/18 04:34:02;;;;;;;0.20;0.20;;;;;;;;;;5109462;28;20047;-71
2022/09/18 04:36:28;;;;;;;1.55;0.20;;;;;;;;;;5111137;28;20514;-71
2022/09/18 04:38:54;;;;;;;0.20;0.20;;;;;;;;;;5111262;28;20027;-71
2022/09/18 04:41:20;;;;;;;0.75;0.30;;;;;;;;;;5110578;28;20062;-71
2022/09/18 04:43:47;;;;;;;0.98;0.30;;;;;;;;;;5109812;28;20032;-71
2022/09/18 04:46:13;;;;;;;0.55;0.20;;;;;;;;;;5110992;28;20027;-72
2022/09/18 04:48:39;;;;;;;0.20;0.20;;;;;;;;;;5110547;28;20032;-72
2022/09/18 04:51:05;;;;;;;0.35;0.30;;;;;;;;;;5111191;28;20024;-72
2022/09/18 04:53:34;;;;;;;0.40;0.40;;;;;;;;;;5111265;28;20096;-72
2022/09/18 04:56:00;;;;;;;2.28;0.30;;;;;;;;;;5110491;28;20035;-72
2022/09/18 04:58:26;;;;;;;0.65;0.30;;;;;;;;;;5110749;28;20024;-72
2022/09/18 05:00:52;;;;;;;1.65;0.30;;;;;;;;;;5110779;28;20015;-72
2022/09/18 05:03:19;;;;;;;0.30;0.30;;;;;;;;;;5110168;28;20040;-72
2022/09/18 05:05:47;;;;;;;1.10;0.30;;;;;;;;;;5110553;28;20028;-72
2022/09/18 05:08:13;;;;;;;0.35;0.30;;;;;;;;;;5110484;28;20476;-72
2022/09/18 05:10:39;;;;;;;1.35;0.57;;;;;;;;;;5110080;28;20028;-72
2022/09/18 05:13:05;;;;;;;0.77;0.40;;;;;;;;;;5110387;28;20102;-72
2022/09/18 05:15:32;;;;;;;0.70;0.43;;;;;;;;;;5110164;28;20058;-72
2022/09/18 05:18:02;;;;;;;2.92;0.40;;;;;;;;;;5110286;28;20177;-72
2022/09/18 05:20:29;;;;;;;0.98;0.38;;;;;;;;;;5110589;28;20028;-71
2022/09/18 05:22:55;;;;;;;0.32;0.30;;;;;;;;;;5109571;28;20471;-71
2022/09/18 05:25:23;;;;;;;0.95;0.47;;;;;;;;;;5109135;28;20357;-71
2022/09/18 05:27:56;;;;;;;0.88;0.40;;;;;;;;;;5110476;28;20024;-72
2022/09/18 05:30:22;;;;;;;1.08;0.30;;;;;;;;;;5109862;28;20024;-72
2022/09/18 05:32:55;;;;;;;2.30;0.70;;;;;;;;;;5110315;28;20115;-72
2022/09/18 05:35:21;;;;;;;1.75;0.30;;;;;;;;;;5098244;28;20016;-72
2022/09/18 05:37:51;;;;;;;0.57;0.55;;;;;;;;;;5096048;28;20096;-72
2022/09/18 05:40:18;;;;;;;0.55;0.40;;;;;;;;;;5095336;28;20384;-72
2022/09/18 05:42:45;;;;;;;0.47;0.30;;;;;;;;;;5096172;28;20115;-72
2022/09/18 05:45:12;;;;;;;1.27;0.50;;;;;;;;;;5095918;28;20056;-72
2022/09/18 05:47:39;;;;;;;0.30;0.30;;;;;;;;;;5096248;28;20027;-71
2022/09/18 05:50:06;;;;;;;1.02;0.60;;;;;;;;;;5096439;28;20060;-72
2022/09/18 05:52:32;;;;;;;1.77;0.82;;;;;;;;;;5095698;28;20064;-71
2022/09/18 05:54:58;;;;;;;0.93;0.50;;;;;;;;;;5096263;28;20059;-71
2022/09/18 05:57:24;;;;;;;1.30;0.60;;;;;;;;;;5096055;28;20468;-71
2022/09/18 05:59:50;;;;;;;0.70;0.55;;;;;;;;;;5095574;28;20020;-72
2022/09/18 06:02:16;;;;;;;0.60;0.45;;;;;;;;;;5095825;28;20024;-72
2022/09/18 06:04:42;;;;;;;2.30;0.80;;;;;;;;;;5095817;28;20062;-72
2022/09/18 06:07:08;;;;;;;0.52;0.50;;;;;;;;;;5096349;28;20028;-72
2022/09/18 06:09:35;;;;;;;0.43;0.40;;;;;;;;;;5095958;28;20028;-72
2022/09/18 06:12:01;;;;;;;1.63;0.70;;;;;;;;;;5095335;28;20024;-72
2022/09/18 06:14:27;;;;;;;1.73;0.45;;;;;;;;;;5095767;28;20459;-72
2022/09/18 06:16:54;;;;;;;0.63;0.43;;;;;;;;;;5095775;28;20020;-72
2022/09/18 06:19:20;;;;;;;0.57;0.45;;;;;;;;;;5095222;28;20426;-72
2022/09/18 06:23:13;;;;;;;0.65;0.52;;;;;;;;;;5111309;27;20722;-71
2022/09/18 06:25:39;;;;;;;0.40;0.35;;;;;;;;;;5111379;28;20486;-72
2022/09/18 06:28:05;;;;;;;1.05;0.70;;;;;;;;;;5110850;28;20032;-72
2022/09/18 06:30:32;;;;;;;1.23;0.50;;;;;;;;;;5111416;28;20016;-72
2022/09/18 06:33:05;;;;;;;1.73;0.73;;;;;;;;;;5110689;28;20024;-72
2022/09/18 06:35:35;;;;;;;1.15;0.47;;;;;;;;;;5111168;28;20036;-72
2022/09/18 06:38:01;;;;;;;0.82;0.60;;;;;;;;;;5111027;28;20023;-72
2022/09/18 06:40:28;;;;;;;0.90;0.52;;;;;;;;;;5110750;28;20028;-72
2022/09/18 06:42:58;;;;;;;1.33;0.90;;;;;;;;;;5110898;28;20039;-71
2022/09/18 06:45:25;;;;;;;2.03;0.70;;;;;;;;;;5110916;28;20107;-71
2022/09/18 06:47:54;;;;;;;0.88;0.60;;;;;;;;;;5110529;28;20032;-71
2022/09/18 06:50:21;;;;;;;1.23;0.70;;;;;;;;;;5110840;28;20024;-71
2022/09/18 06:57:20;;;;;;;1.92;0.75;;;;;;;;;;5112065;27;20384;-71
2022/09/18 07:00:45;;;;;;;2.65;1.10;;;;;;;;;;5111954;27;20380;-73
2022/09/18 07:03:12;;;;;;;1.70;0.85;;;;;;;;;;5110986;28;20388;-73
2022/09/18 07:09:32;;;;;;;0.75;0.50;;;;;;;;;;5111261;27;20385;-71
2022/09/18 07:11:58;;;;;;;2.22;0.90;;;;;;;;;;5110083;28;20031;-71
2022/09/18 07:14:24;;;;;;;5.28;1.25;;;;;;;;;;5111270;28;20020;-71
2022/09/18 07:16:50;;;;;;;1.83;1.00;;;;;;;;;;5110776;28;20031;-71
2022/09/18 07:19:16;;;;;;;0.93;0.60;;;;;;;;;;5111144;28;20020;-71
2022/09/18 07:22:00;;;;;;;1.65;0.52;;;;;;;;;;5111950;27;20568;-73
2022/09/18 07:24:26;;;;;;;1.80;0.90;;;;;;;;;;5110955;28;20023;-73
2022/09/18 07:26:52;;;;;;;1.95;0.90;;;;;;;;;;5110064;28;20106;-73
2022/09/18 07:31:23;;;;;;;2.92;0.85;;;;;;;;;;5091218;27;20874;-72
2022/09/18 07:33:52;;;;;;;3.05;0.50;;;;;;;;;;5090916;28;20461;-72
2022/09/18 07:36:19;;;;;;;1.88;0.50;;;;;;;;;;5090990;28;20059;-72
2022/09/18 07:38:48;;;;;;;2.00;0.70;;;;;;;;;;5091415;28;20024;-72
2022/09/18 07:41:15;;;;;;;0.70;0.40;;;;;;;;;;5090729;28;20086;-72
2022/09/18 07:48:06;;;;;;;0.65;0.60;;;;;;;;;;5112081;27;20557;-73
2022/09/18 07:50:32;;;;;;;1.38;0.70;;;;;;;;;;5110960;28;20035;-73
2022/09/18 07:55:10;;;;;;;3.50;0.40;;;;;;;;;;5071145;28;20388;-73
2022/09/18 07:57:37;;;;;;;1.30;0.65;;;;;;;;;;5070336;28;20078;-73
2022/09/18 08:00:03;;;;;;;2.90;0.60;;;;;;;;;;5070949;28;20054;-73
2022/09/18 08:02:29;;;;;;;1.23;0.55;;;;;;;;;;5070767;28;20388;-74
2022/09/18 08:04:56;;;;;;;0.82;0.50;;;;;;;;;;5068958;28;20028;-73
2022/09/18 08:07:24;;;;;;;2.13;0.50;;;;;;;;;;5070898;28;20409;-73
2022/09/18 08:09:50;;;;;;;0.88;0.50;;;;;;;;;;5070632;28;20017;-73
2022/09/18 08:13:19;;;;;;;1.95;0.80;;;;;;;;;;5111086;27;20558;-73
2022/09/18 08:17:34;;;;;;;2.47;1.00;;;;;;;;;;5091059;27;20386;-71
2022/09/18 08:20:00;;;;;;;0.98;0.80;;;;;;;;;;5090568;28;20024;-73
2022/09/18 08:22:26;;;;;;;1.33;0.60;;;;;;;;;;5090892;28;20055;-73
2022/09/18 08:24:53;;;;;;;2.72;0.70;;;;;;;;;;5090866;28;20096;-73
2022/09/18 08:28:01;;;;;;;0.85;0.77;;;;;;;;;;5071315;28;20388;-72
2022/09/18 08:30:28;;;;;;;1.50;0.60;;;;;;;;;;5070783;28;20397;-72
2022/09/18 08:33:01;;;;;;;1.23;0.70;;;;;;;;;;5070266;28;20496;-72
2022/09/18 08:36:49;;;;;;;1.88;0.98;;;;;;;;;;5111858;27;20915;-73
2022/09/18 08:39:15;;;;;;;1.73;0.70;;;;;;;;;;5111893;28;20376;-73
2022/09/18 08:43:49;;;;;;;0.85;0.55;;;;;;;;;;5091160;27;20826;-74
2022/09/18 08:49:06;;;;;;;0.88;0.65;;;;;;;;;;5111623;27;20603;-73
2022/09/18 08:53:17;;;;;;;0.63;0.40;;;;;;;;;;5070806;28;20387;-73
2022/09/18 09:01:02;;;;;;;3.00;1.23;;;;;;;;;;5111526;27;20969;-72
2022/09/18 09:03:28;;;;;;;2.10;0.50;;;;;;;;;;5111264;28;20023;-72
2022/09/18 09:09:27;;;;;;;5.43;1.13;;;;;;;;;;5111199;27;20426;-73
2022/09/18 09:11:59;;;;;;;1.02;0.50;;;;;;;;;;5111354;28;20073;-72
2022/09/18 09:14:26;;;;;;;0.80;0.50;;;;;;;;;;5111363;28;20035;-73
2022/09/18 09:18:03;;;;;;;3.33;0.63;;;;;;;;;;5112072;27;20771;-73
2022/09/18 09:21:42;;;;;;;2.00;0.35;;;;;;;;;;5111793;27;20384;-73
2022/09/18 09:25:41;;;;;;;0.85;0.38;;;;;;;;;;5111535;27;20115;-74
2022/09/18 09:28:23;;;;;;;1.77;0.50;;;;;;;;;;5111501;28;20061;-73
2022/09/18 09:30:54;;;;;;;1.95;0.50;;;;;;;;;;5110845;28;20030;-73
2022/09/18 09:34:27;;;;;;;0.63;0.50;;;;;;;;;;5111909;27;20549;-73
2022/09/18 09:36:55;;;;;;;2.42;0.47;;;;;;;;;;5110909;28;20020;-71
2022/09/18 09:44:11;;;;;;;1.30;0.63;;;;;;;;;;5111271;27;20563;-73
2022/09/18 09:46:59;;;;;;;3.42;0.90;;;;;;;;;;5111528;28;20044;-73
2022/09/18 09:49:29;;;;;;;1.95;0.90;;;;;;;;;;5111461;28;20435;-73
2022/09/18 09:51:56;;;;;;;2.13;0.57;;;;;;;;;;5110869;28;20425;-74
2022/09/18 09:54:22;;;;;;;1.90;0.65;;;;;;;;;;5111503;28;20024;-73
2022/09/18 09:58:37;;;;;;;1.20;0.70;;;;;;;;;;5111182;27;20412;-73
2022/09/18 10:01:51;;;;;;;1.20;0.57;;;;;;;;;;5111659;27;20631;-73
2022/09/18 10:04:47;;;;;;;1.83;0.93;;;;;;;;;;5111500;27;20583;-73
2022/09/18 10:07:36;;;;;;;1.98;1.10;;;;;;;;;;5111424;28;20031;-73
2022/09/18 10:13:04;;;;;;;1.30;0.90;;;;;;;;;;5110991;27;20553;-73
2022/09/18 10:17:23;;;;;;;3.65;1.30;;;;;;;;;;5111539;27;20389;-73
2022/09/18 10:19:49;;;;;;;2.25;0.93;;;;;;;;;;5110957;28;20024;-73
2022/09/18 10:22:18;;;;;;;1.60;1.02;;;;;;;;;;5111236;28;20032;-73
2022/09/18 10:25:13;;;;;;;1.65;1.00;;;;;;;;;;5111196;28;20471;-74
2022/09/18 10:27:39;;;;;;;2.08;0.80;;;;;;;;;;5039683;28;20033;-71
2022/09/18 10:34:53;;;;;;;1.17;0.70;;;;;;;;;;5111673;27;20977;-74
2022/09/18 10:43:52;;;;;;;1.33;0.70;;;;;;;;;;5111467;27;20553;-74
2022/09/18 10:47:48;;;;;;;1.75;0.68;;;;;;;;;;5111035;27;20430;-72
2022/09/18 10:50:14;;;;;;;1.48;0.82;;;;;;;;;;5111277;28;20472;-72
2022/09/18 10:52:45;;;;;;;1.77;0.57;;;;;;;;;;5111482;28;20020;-72
2022/09/18 10:56:16;;;;;;;1.63;0.80;;;;;;;;;;5111699;27;20565;-72
2022/09/18 10:58:43;;;;;;;1.45;0.52;;;;;;;;;;5111683;28;20107;-72
2022/09/18 11:02:38;;;;;;;2.47;0.88;;;;;;;;;;5111420;27;20629;-71
2022/09/18 11:05:04;;;;;;;3.47;1.00;;;;;;;;;;5111377;28;20028;-71
2022/09/18 11:11:58;;;;;;;4.97;1.27;;;;;;;;;;5111428;27;20888;-72
2022/09/18 11:15:25;;;;;;;3.00;1.00;;;;;;;;;;5111279;27;20766;-73
2022/09/18 11:17:52;;;;;;;1.63;0.93;;;;;;;;;;5111274;28;20035;-73
2022/09/18 11:20:54;;;;;;;0.95;0.47;;;;;;;;;;5111427;27;20554;-73
2022/09/18 11:23:20;;;;;;;1.10;0.70;;;;;;;;;;5111153;28;20055;-72
2022/09/18 11:25:47;;;;;;;2.70;0.80;;;;;;;;;;5111205;28;20032;-72
2022/09/18 11:28:29;;;;;;;2.13;0.80;;;;;;;;;;5111389;27;20561;-71
2022/09/18 11:35:48;;;;;;;5.40;0.80;;;;;;;;;;5111073;27;21073;-72
2022/09/18 11:38:18;;;;;;;1.30;0.43;;;;;;;;;;5111268;28;20501;-73
2022/09/18 11:40:50;;;;;;;0.60;0.45;;;;;;;;;;5111346;28;20043;-72
2022/09/18 11:43:22;;;;;;;2.05;0.70;;;;;;;;;;5110938;28;20093;-72
2022/09/18 11:46:41;;;;;;;2.60;0.70;;;;;;;;;;5111452;27;20516;-71
2022/09/18 11:49:14;;;;;;;1.65;0.60;;;;;;;;;;5110069;28;20038;-72
2022/09/18 11:51:48;;;;;;;2.40;0.60;;;;;;;;;;5110922;28;20016;-72
2022/09/18 11:54:29;;;;;;;1.52;0.50;;;;;;;;;;5111167;28;20036;-73
2022/09/18 11:57:00;;;;;;;2.85;1.00;;;;;;;;;;5110918;28;20028;-73
2022/09/18 11:59:32;;;;;;;2.42;1.02;;;;;;;;;;5111083;28;20077;-73
2022/09/18 12:02:04;;;;;;;2.30;0.77;;;;;;;;;;5111296;28;20049;-73
2022/09/18 12:05:29;;;;;;;3.05;0.80;;;;;;;;;;5111035;27;20569;-72
2022/09/18 12:07:55;;;;;;;0.85;0.60;;;;;;;;;;5111361;28;20016;-72
2022/09/18 12:13:55;;;;;;;1.77;0.70;;;;;;;;;;5111813;27;20569;-71
2022/09/18 12:16:36;;;;;;;1.88;0.70;;;;;;;;;;5111633;28;20034;-71
2022/09/18 12:19:09;;;;;;;0.60;0.50;;;;;;;;;;5110743;28;20024;-71
2022/09/18 12:21:38;;;;;;;0.95;0.63;;;;;;;;;;5111550;28;20016;-74
2022/09/18 12:24:04;;;;;;;0.98;0.50;;;;;;;;;;5111224;28;20024;-73
2022/09/18 12:26:42;;;;;;;3.00;1.08;;;;;;;;;;5110889;28;20031;-74
2022/09/18 12:29:19;;;;;;;1.45;0.85;;;;;;;;;;5111414;28;20380;-73
2022/09/18 12:31:45;;;;;;;2.00;0.70;;;;;;;;;;5110813;28;20028;-73
2022/09/18 12:35:02;;;;;;;1.83;0.50;;;;;;;;;;5111887;27;20565;-73
2022/09/18 12:37:42;;;;;;;2.88;0.57;;;;;;;;;;5111502;28;20023;-73
2022/09/18 12:40:16;;;;;;;2.10;0.90;;;;;;;;;;5110877;28;20422;-73
2022/09/18 12:42:48;;;;;;;1.92;1.02;;;;;;;;;;5111296;28;20020;-73
2022/09/18 12:45:21;;;;;;;2.40;1.10;;;;;;;;;;5111204;28;20057;-73
2022/09/18 12:48:06;;;;;;;2.60;0.82;;;;;;;;;;5110794;28;20026;-73
2022/09/18 12:50:35;;;;;;;1.52;0.75;;;;;;;;;;5111223;28;20505;-73
2022/09/18 12:53:01;;;;;;;1.42;0.65;;;;;;;;;;5110522;28;20028;-73
2022/09/18 12:55:47;;;;;;;0.85;0.50;;;;;;;;;;5111299;28;20050;-73
2022/09/18 12:58:40;;;;;;;0.77;0.28;;;;;;;;;;5111640;28;20019;-73
2022/09/18 13:01:24;;;;;;;0.85;0.32;;;;;;;;;;5102057;28;20062;-73
2022/09/18 13:03:52;;;;;;;4.47;0.57;;;;;;;;;;5111185;28;20481;-73
2022/09/18 13:06:22;;;;;;;1.70;0.80;;;;;;;;;;5110691;28;20361;-73
2022/09/18 13:08:48;;;;;;;2.38;0.57;;;;;;;;;;5110633;28;20012;-73
2022/09/18 13:11:29;;;;;;;2.55;1.10;;;;;;;;;;5110853;28;20069;-73
2022/09/18 13:13:59;;;;;;;1.35;0.77;;;;;;;;;;5110313;28;20031;-73
2022/09/18 13:16:34;;;;;;;0.93;0.50;;;;;;;;;;5110519;28;20142;-73
2022/09/18 13:19:19;;;;;;;1.42;0.60;;;;;;;;;;5110542;28;20095;-73
2022/09/18 13:21:45;;;;;;;1.67;0.60;;;;;;;;;;5110086;28;20020;-74
2022/09/18 13:24:22;;;;;;;1.88;0.77;;;;;;;;;;5110492;28;20080;-73
2022/09/18 13:26:49;;;;;;;1.75;0.77;;;;;;;;;;5110403;28;20016;-73
2022/09/18 13:29:34;;;;;;;1.95;0.90;;;;;;;;;;5125834;28;20024;-74
2022/09/18 13:32:01;;;;;;;3.97;1.65;;;;;;;;;;5110251;28;20503;-74
2022/09/18 13:34:27;;;;;;;2.47;1.10;;;;;;;;;;5110139;28;20404;-75
2022/09/18 13:36:53;;;;;;;2.38;0.63;;;;;;;;;;5109862;28;20416;-75
2022/09/18 13:39:19;;;;;;;1.88;0.80;;;;;;;;;;5110240;28;20028;-74
2022/09/18 13:41:47;;;;;;;1.92;0.73;;;;;;;;;;5110137;28;20046;-74
2022/09/18 13:44:19;;;;;;;3.00;1.08;;;;;;;;;;5109438;28;20085;-74
2022/09/18 13:46:46;;;;;;;2.35;0.85;;;;;;;;;;5096213;28;20435;-73
2022/09/18 13:49:25;;;;;;;3.05;0.38;;;;;;;;;;5096021;28;20103;-74
2022/09/18 13:51:52;;;;;;;1.17;0.70;;;;;;;;;;5096988;28;20051;-74
2022/09/18 13:54:20;;;;;;;1.95;0.50;;;;;;;;;;5096186;28;20089;-74
2022/09/18 13:57:01;;;;;;;1.77;0.70;;;;;;;;;;5096067;28;20024;-74
2022/09/18 13:59:43;;;;;;;1.13;0.50;;;;;;;;;;5096415;28;20020;-74
2022/09/18 14:02:29;;;;;;;1.88;0.75;;;;;;;;;;5096170;28;20099;-75
2022/09/18 14:05:00;;;;;;;0.60;0.45;;;;;;;;;;5095679;28;20104;-74
2022/09/18 14:07:26;;;;;;;1.10;0.50;;;;;;;;;;5096324;28;20016;-74
2022/09/18 14:09:54;;;;;;;1.80;0.70;;;;;;;;;;5095966;28;20032;-74
2022/09/18 14:12:21;;;;;;;1.75;0.85;;;;;;;;;;5095977;28;20020;-74
2022/09/18 14:15:02;;;;;;;1.33;0.60;;;;;;;;;;5095746;28;20038;-74
2022/09/18 14:17:28;;;;;;;1.48;0.60;;;;;;;;;;5095462;28;20027;-74
2022/09/18 14:20:04;;;;;;;2.15;0.80;;;;;;;;;;5095831;28;20024;-74
2022/09/18 14:22:33;;;;;;;4.28;1.70;;;;;;;;;;5095823;28;20016;-74
2022/09/18 14:25:05;;;;;;;3.17;1.40;;;;;;;;;;5095336;28;20028;-74
2022/09/18 14:27:34;;;;;;;1.70;0.70;;;;;;;;;;5095749;28;20024;-74
2022/09/18 14:30:17;;;;;;;2.00;0.80;;;;;;;;;;5095603;28;20035;-74
2022/09/18 14:33:03;;;;;;;1.80;0.70;;;;;;;;;;5094815;28;20044;-74
2022/09/18 14:35:42;;;;;;;1.85;1.00;;;;;;;;;;5095496;28;20042;-75
2022/09/18 14:38:46;;;;;;;1.80;0.68;;;;;;;;;;5095061;28;20024;-75
2022/09/18 14:41:22;;;;;;;1.75;0.85;;;;;;;;;;5073123;28;20071;-75
2022/09/18 14:43:48;;;;;;;0.80;0.47;;;;;;;;;;5073063;28;20025;-74
2022/09/18 14:46:17;;;;;;;2.47;0.50;;;;;;;;;;5084681;28;20532;-74
2022/09/18 14:48:43;;;;;;;2.20;0.70;;;;;;;;;;5095237;28;20085;-74
2022/09/18 14:51:18;;;;;;;0.95;0.30;;;;;;;;;;5095152;28;20024;-75
2022/09/18 14:53:48;;;;;;;1.77;0.65;;;;;;;;;;5094723;28;20438;-74
2022/09/18 14:56:17;;;;;;;2.40;0.55;;;;;;;;;;5094599;28;20024;-75
2022/09/18 14:58:45;;;;;;;0.55;0.20;;;;;;;;;;5094808;28;20492;-75
2022/09/18 15:01:22;;;;;;;0.75;0.30;;;;;;;;;;5094689;28;20027;-75
2022/09/18 15:03:50;;;;;;;3.60;0.43;;;;;;;;;;5095089;28;20016;-74
2022/09/18 15:06:20;;;;;;;1.00;0.40;;;;;;;;;;5094239;28;20039;-74
2022/09/18 15:08:47;;;;;;;0.43;0.32;;;;;;;;;;5095085;28;20028;-74
2022/09/18 15:11:14;;;;;;;0.40;0.30;;;;;;;;;;5094807;28;20024;-74
2022/09/18 15:13:41;;;;;;;1.48;0.60;;;;;;;;;;5094358;28;20032;-74
2022/09/18 15:16:16;;;;;;;3.05;0.68;;;;;;;;;;5094760;28;20028;-74
2022/09/18 15:18:42;;;;;;;0.93;0.50;;;;;;;;;;5094791;28;20110;-74
2022/09/18 15:21:21;;;;;;;2.45;0.90;;;;;;;;;;5094222;28;20498;-74
2022/09/18 15:23:47;;;;;;;1.48;0.45;;;;;;;;;;5094855;28;20523;-74
2022/09/18 15:26:15;;;;;;;2.15;0.57;;;;;;;;;;5094601;28;20463;-74
2022/09/18 15:28:42;;;;;;;1.67;0.50;;;;;;;;;;5094233;28;20487;-74
2022/09/18 15:31:09;;;;;;;0.52;0.32;;;;;;;;;;5094486;28;20077;-74
2022/09/18 15:33:38;;;;;;;2.03;0.40;;;;;;;;;;5094163;28;20048;-74
2022/09/18 15:36:05;;;;;;;2.38;0.50;;;;;;;;;;5094264;28;20020;-74
2022/09/18 15:38:41;;;;;;;2.38;0.55;;;;;;;;;;5094502;28;20020;-74
2022/09/18 15:41:28;;;;;;;1.48;0.55;;;;;;;;;;5094208;28;20417;-74
2022/09/18 15:43:54;;;;;;;0.95;0.40;;;;;;;;;;5090265;28;20085;-74
2022/09/18 15:46:25;;;;;;;1.13;0.40;;;;;;;;;;5095026;28;20024;-74
2022/09/18 15:48:51;;;;;;;1.13;0.50;;;;;;;;;;5094032;28;20024;-74
2022/09/18 15:51:23;;;;;;;1.90;0.40;;;;;;;;;;5094078;28;20020;-74
2022/09/18 15:54:09;;;;;;;1.43;0.60;;;;;;;;;;5094060;28;20082;-74
2022/09/18 15:56:36;;;;;;;4.22;0.40;;;;;;;;;;5093745;28;20059;-74
2022/09/18 15:59:04;;;;;;;0.77;0.30;;;;;;;;;;5093960;28;20022;-73
2022/09/18 16:01:33;;;;;;;0.95;0.45;;;;;;;;;;5094065;28;20024;-74
2022/09/18 16:04:04;;;;;;;5.18;1.20;;;;;;;;;;5093563;28;20468;-74
2022/09/18 16:06:32;;;;;;;1.98;0.85;;;;;;;;;;5094053;28;20057;-74
2022/09/18 16:08:59;;;;;;;2.40;0.75;;;;;;;;;;5109275;28;20020;-74
2022/09/18 16:11:51;;;;;;;3.10;0.88;;;;;;;;;;5093400;28;20027;-74
2022/09/18 16:14:36;;;;;;;1.65;0.75;;;;;;;;;;5092747;28;20102;-74
2022/09/18 16:20:22;;;;;;;2.03;0.90;;;;;;;;;;5111925;27;20559;-74
2022/09/18 16:22:48;;;;;;;3.15;1.00;;;;;;;;;;5111566;28;20032;-74
2022/09/18 16:25:23;;;;;;;2.67;1.23;;;;;;;;;;5110826;28;20479;-72
2022/09/18 16:27:50;;;;;;;1.55;0.75;;;;;;;;;;5111564;28;20106;-72
2022/09/18 16:31:25;;;;;;;1.00;0.63;;;;;;;;;;5111607;27;20570;-72
2022/09/18 16:35:12;;;;;;;1.55;0.75;;;;;;;;;;5071443;28;20400;-73
2022/09/18 16:37:40;;;;;;;1.77;0.82;;;;;;;;;;5070781;28;20386;-73
2022/09/18 16:40:26;;;;;;;0.75;0.50;;;;;;;;;;5070295;28;20027;-73
2022/09/18 16:48:49;;;;;;;1.85;0.70;;;;;;;;;;5111469;27;21097;-74
2022/09/18 16:52:49;;;;;;;1.42;0.70;;;;;;;;;;5110926;27;20641;-74
2022/09/18 16:57:42;;;;;;;2.78;1.13;;;;;;;;;;5111492;27;20569;-72
2022/09/18 17:00:11;;;;;;;3.55;1.00;;;;;;;;;;5111168;28;20024;-72
2022/09/18 17:04:42;;;;;;;4.57;2.60;;;;;;;;;;5112255;27;20553;-74
2022/09/18 17:07:09;;;;;;;3.88;1.95;;;;;;;;;;5109560;28;20028;-74
2022/09/18 17:09:35;;;;;;;4.72;1.95;;;;;;;;;;5111305;28;20410;-74
2022/09/18 17:14:11;;;;;;;4.20;1.50;;;;;;;;;;5111392;27;20404;-72
2022/09/18 17:18:27;;;;;;;3.15;1.48;;;;;;;;;;5111594;27;20520;-74
2022/09/18 17:21:41;;;;;;;4.63;1.45;;;;;;;;;;5111205;27;20839;-74
2022/09/18 17:24:07;;;;;;;4.57;1.50;;;;;;;;;;5111649;28;20028;-74
2022/09/18 17:27:36;;;;;;;3.72;1.80;;;;;;;;;;5111153;27;20565;-73
2022/09/18 17:31:28;;;;;;;4.80;2.25;;;;;;;;;;5112210;27;20389;-73
2022/09/18 17:33:55;;;;;;;6.20;2.10;;;;;;;;;;5111426;28;20506;-74
2022/09/18 17:36:22;;;;;;;5.78;2.17;;;;;;;;;;5110879;28;20051;-74
2022/09/18 17:38:48;;;;;;;6.20;2.08;;;;;;;;;;5111279;28;20020;-74
2022/09/18 17:41:15;;;;;;;10.13;3.90;;;;;;;;;;5110881;28;20524;-73